sim
Sign-in with your pilot id or email,
or register
Callsign
Passwort

Schedule Details

Flight Number: OEO1729
Departure: Girona Costa Brava Airport (LEGE) at 06:45
Arrival: Bremen Airport (EDDW) at 09:00

Weather Information
Getting current METAR information for LEGE 112030Z VRB02KT 9999 FEW060 24/17 Q1018
Getting current METAR information for EDDW 112020Z 23001KT 9999 FEW028 13/12 Q1025 NOSIG

Schedule Frequency

Route Map